Latest Weather Observations for Carters Bore

IDQ60801

Issued at 1:02 pm EST Tuesday 21 April 2015 (issued every 30 minutes, with the page automatically refreshed every 10 minutes)

About weather observations | Map of weather stations | Latest weather observations for QLD | Other Formats
Station Details ID: 037053 Name: CARTERS BORE Lat: -20.94 Lon: 139.30 Height: 396.0 m
Data from the previous 72 hours. | See also: Recent months for locations in Queensland
Date/Time
EST
Temp
°C
App
Temp
°C
Dew
Point
Rel
Hum
%
Delta-T
°C
Wind Press
QNH
hPa
Press
MSL
hPa
Rain
since 9 am
mm
Dir
 
Spd
km/h
Gust
km/h
Spd
kts
Gust
kts
21/01:00pm 22.5 16.5 -3.0 18 11.1 SE 19 30 10 16 - - 0.0
21/12:30pm 21.3 15.2 -2.5 20 10.3 SSE 20 32 11 17 - - 0.0
21/12:00pm 20.6 14.6 -1.8 22 9.8 SE 20 32 11 17 - - 0.0
21/11:30am 19.4 13.4 -1.7 24 9.2 SE 20 32 11 17 - - 0.0
21/11:00am 19.0 14.0 -1.4 25 8.9 SE 15 22 8 12 - - 0.0
21/10:30am 17.6 11.2 -1.6 27 8.2 SE 22 30 12 16 - - 0.0
21/10:00am 17.1 11.2 -2.0 27 8.1 ESE 19 32 10 17 - - 0.0
21/09:30am 15.9 9.8 -2.1 29 7.5 ESE 20 30 11 16 - - 0.0
21/09:00am 14.8 8.3 -2.6 30 7.1 SE 22 32 12 17 - - 0.0
21/08:30am 13.9 6.6 -2.9 31 6.7 SE 26 39 14 21 - - 0.0
21/08:00am 13.4 6.8 -3.4 31 6.6 SE 22 39 12 21 - - 0.0
21/07:30am 13.0 6.0 -3.3 32 6.4 SE 24 33 13 18 - - 0.0
21/07:00am 12.9 5.9 -3.4 32 6.4 SSE 24 37 13 20 - - 0.0
21/06:30am 13.2 5.8 -3.5 31 6.6 SE 26 35 14 19 - - 0.0
21/06:00am 13.6 6.1 -4.1 29 6.9 SE 26 35 14 19 - - 0.0
21/05:30am 13.8 7.1 -4.4 28 7.1 SE 22 37 12 20 - - 0.0
21/05:00am 14.1 7.0 -4.6 27 7.2 SSE 24 39 13 21 - - 0.0
21/04:30am 14.4 7.3 -4.8 26 7.4 SE 24 33 13 18 - - 0.0
21/04:00am 14.8 7.3 -5.0 25 7.7 SE 26 39 14 21 - - 0.0
21/03:30am 14.9 8.1 -4.9 25 7.7 SE 22 35 12 19 - - 0.0
21/03:00am 15.1 8.8 -4.2 26 7.6 SSE 20 32 11 17 - - 0.0
21/02:30am 15.3 9.0 -4.1 26 7.7 SSE 20 32 11 17 - - 0.0
21/02:00am 15.8 8.7 -4.2 25 8.0 SSE 24 39 13 21 - - 0.0
21/01:30am 16.2 9.5 -3.8 25 8.1 SSE 22 33 12 18 - - 0.0
21/01:00am 16.6 9.7 -2.5 27 7.9 SSE 24 37 13 20 - - 0.0
21/12:30am 17.2 9.3 -1.4 28 8.0 SSE 30 44 16 24 - - 0.0
21/12:00am 17.6 11.5 0.3 31 7.7 SSE 22 33 12 18 - - 0.0
 
Date/Time
EST
Temp
°C
App
Temp
°C
Dew
Point
Rel
Hum
%
Delta-T
°C
Wind Press
QNH
hPa
Press
MSL
hPa
Rain
since 9 am
mm
Dir
 
Spd
km/h
Gust
km/h
Spd
kts
Gust
kts
20/11:30pm 18.2 11.8 0.8 31 7.9 SSE 24 41 13 22 - - 0.0
20/11:00pm 18.6 11.9 1.2 31 8.0 SSE 26 39 14 21 - - 0.0
20/10:30pm 19.1 13.2 1.6 31 8.1 SSE 22 39 12 21 - - 0.0
20/10:00pm 19.6 13.0 2.0 31 8.2 SSE 26 37 14 20 - - 0.0
20/09:30pm 20.0 13.6 3.3 33 8.0 SSE 26 41 14 22 - - 0.0
20/09:00pm 20.5 14.5 3.3 32 8.3 SSE 24 33 13 18 - - 0.0
20/08:30pm 20.9 15.3 3.2 31 8.6 SSE 22 32 12 17 - - 0.0
20/08:00pm 21.1 15.5 3.3 31 8.6 SSE 22 33 12 18 - - 0.0
20/07:30pm 21.8 15.7 3.0 29 9.1 SSE 24 37 13 20 - - 0.0
20/07:00pm 22.0 16.4 3.2 29 9.2 SSE 22 37 12 20 - - 0.0
20/06:30pm 22.6 16.7 3.7 29 9.3 SSE 24 37 13 20 - - 0.0
20/06:00pm 23.4 17.1 3.9 28 9.7 SSE 26 39 14 21 - - 0.0
20/05:30pm 23.9 17.7 4.3 28 9.9 SSE 26 43 14 23 - - 0.0
20/05:00pm 24.5 17.9 4.3 27 10.2 SSE 28 37 15 20 - - 0.0
20/04:30pm 24.8 19.0 4.5 27 10.3 SE 24 37 13 20 - - 0.0
20/04:00pm 24.8 18.9 5.6 29 10.0 SSE 26 43 14 23 - - 0.0
20/03:30pm 24.6 17.7 4.4 27 10.2 SSE 30 44 16 24 - - 0.0
20/03:00pm 24.8 19.2 5.6 29 10.0 SSE 24 35 13 19 - - 0.0
20/02:30pm 24.9 19.4 6.1 30 9.9 SSE 24 43 13 23 - - 0.0
20/02:00pm 24.1 19.1 6.4 32 9.3 SE 22 35 12 19 - - 0.0
20/01:30pm 23.7 18.0 6.9 34 8.9 SE 26 39 14 21 - - 0.0
20/01:00pm 22.8 16.4 7.0 36 8.3 SE 30 41 16 22 - - 0.0
20/12:30pm 22.3 17.3 8.1 40 7.6 SSE 24 37 13 20 - - 0.0
20/12:00pm 22.0 15.7 8.9 43 7.1 SSE 32 46 17 25 - - 0.0
20/11:30am 21.1 15.9 9.0 46 6.5 SSE 26 39 14 21 - - 0.0
20/11:00am 20.2 14.7 9.2 49 5.9 SSE 28 41 15 22 - - 0.0
20/10:30am 19.2 14.1 9.1 52 5.4 SE 26 41 14 22 - - 0.0
20/10:00am 18.3 13.5 8.8 54 5.0 SSE 24 35 13 19 - - 0.0
20/09:30am 17.8 11.9 9.2 57 4.6 SSE 30 41 16 22 - - 0.0
20/09:00am 17.7 12.6 9.1 57 4.6 SSE 26 41 14 22 - - 0.0
20/08:30am 17.3 11.8 9.0 58 4.4 SSE 28 39 15 21 - - 0.0
20/08:00am 16.5 11.3 8.7 60 4.1 SSE 26 35 14 19 - - 0.0
20/07:30am 16.8 12.7 8.8 59 4.2 SSE 20 30 11 16 - - 0.0
20/07:00am 16.9 11.3 8.8 59 4.3 SE 28 43 15 23 - - 0.0
20/06:40am 16.9 11.3 8.6 58 4.3 SSE 28 46 15 25 - - 0.0
20/06:30am 17.1 12.5 8.3 56 4.6 SSE 22 33 12 18 - - 0.0
20/06:00am 17.4 10.9 8.3 55 4.7 SSE 32 46 17 25 - - 0.0
20/05:30am 17.8 12.2 8.9 56 4.7 SSE 28 48 15 26 - - 0.0
20/05:00am 18.0 12.0 8.8 55 4.9 SSE 30 50 16 27 - - 0.0
20/04:30am 18.2 11.3 8.7 54 5.0 SSE 35 57 19 31 - - 0.0
20/04:21am 18.3 12.7 8.6 53 5.1 SSE 28 50 15 27 - - 0.0
20/04:00am 18.6 11.9 8.3 51 5.4 SSE 33 48 18 26 - - 0.0
20/03:31am 18.7 12.9 8.1 50 5.6 SSE 28 46 15 25 - - 0.0
20/03:30am 18.8 12.6 7.9 49 5.7 SSE 30 46 16 25 - - 0.0
20/03:00am 18.9 12.3 7.7 48 5.8 SSE 32 46 17 25 - - 0.0
20/02:30am 19.3 12.3 6.8 44 6.4 SSE 33 50 18 27 - - 0.0
20/02:00am 19.5 13.6 5.9 41 6.9 SSE 26 39 14 21 - - 0.0
20/01:30am 19.6 12.9 5.6 40 7.0 SSE 30 44 16 24 - - 0.0
20/01:00am 19.8 12.9 4.7 37 7.5 SSE 30 43 16 23 - - 0.0
20/12:30am 19.9 13.9 5.5 39 7.2 SSE 26 41 14 22 - - 0.0
20/12:00am 20.1 13.8 5.7 39 7.3 SSE 28 41 15 22 - - 0.0
 
Date/Time
EST
Temp
°C
App
Temp
°C
Dew
Point
Rel
Hum
%
Delta-T
°C
Wind Press
QNH
hPa
Press
MSL
hPa
Rain
since 9 am
mm
Dir
 
Spd
km/h
Gust
km/h
Spd
kts
Gust
kts
19/11:30pm 20.5 13.8 5.7 38 7.5 SSE 30 41 16 22 - - 0.0
19/11:00pm 20.9 14.4 6.4 39 7.5 SSE 30 44 16 24 - - 0.0
19/10:30pm 20.9 14.6 7.2 41 7.2 SSE 30 44 16 24 - - 0.0
19/10:00pm 20.8 14.8 8.8 46 6.5 SSE 30 46 16 25 - - 0.0
19/09:30pm 20.6 16.2 10.4 52 5.6 SSE 24 39 13 21 - - 0.0
19/09:00pm 20.3 16.1 12.3 60 4.6 SSE 26 37 14 20 - - 0.0
19/08:30pm 19.9 16.5 13.8 68 3.6 S 24 39 13 21 - - 0.0
19/08:00pm 19.9 17.4 14.0 69 3.5 SSE 20 30 11 16 - - 0.0
19/07:30pm 19.8 16.3 12.3 62 4.3 SSE 22 30 12 16 - - 0.0
19/07:00pm 19.8 16.6 13.0 65 3.9 SSE 22 32 12 17 - - 0.0
19/06:30pm 20.1 16.0 11.6 58 4.8 SE 24 35 13 19 - - 0.0
19/06:00pm 20.1 16.8 12.8 63 4.2 SE 22 35 12 19 - - 0.0
19/05:30pm 20.7 17.6 13.4 63 4.3 SSE 22 33 12 18 - - 0.0
19/05:00pm 21.1 17.2 13.3 61 4.6 SSE 26 37 14 20 - - 0.0
19/04:30pm 22.0 17.9 12.8 56 5.3 SSE 26 35 14 19 - - 0.0
19/04:00pm 22.1 19.0 13.5 58 5.1 SE 22 33 12 18 - - 0.0
19/03:30pm 22.2 17.7 12.7 55 5.5 S 28 35 15 19 - - 0.0
19/03:00pm 22.5 19.6 14.1 59 5.0 SSE 22 35 12 19 - - 0.0
19/02:30pm 22.2 18.8 13.8 59 5.0 SSE 24 35 13 19 - - 0.0
19/02:00pm 23.3 19.4 14.3 57 5.4 SSE 28 37 15 20 - - 0.0
19/01:30pm 23.4 19.6 13.6 54 5.8 S 26 37 14 20 - - 0.0
19/01:00pm 22.8 19.4 13.6 56 5.4 SSE 24 37 13 20 - - 0.0
19/12:30pm 23.7 20.3 13.6 53 6.0 S 24 32 13 17 - - 0.0
19/12:00pm 23.4 19.6 12.4 50 6.4 SSE 24 35 13 19 - - 0.0
19/11:30am 24.1 20.3 12.4 48 6.8 SSE 24 37 13 20 - - 0.0
19/11:00am 23.3 19.0 12.0 49 6.5 S 26 37 14 20 - - 0.0
19/10:30am 24.3 21.0 11.6 45 7.3 SSE 20 32 11 17 - - 0.0
19/10:00am 23.8 20.3 12.1 48 6.8 SE 22 32 12 17 - - 0.0
19/09:30am 22.3 18.9 12.5 53 5.7 SSE 22 33 12 18 - - 0.0
19/09:00am 21.9 17.9 13.0 57 5.2 SSE 26 37 14 20 - - 0.0
19/08:30am 20.6 17.1 13.3 63 4.2 SSE 24 37 13 20 - - 0.0
19/08:00am 20.6 18.1 14.0 66 3.9 SSE 20 28 11 15 - - 0.0
19/07:30am 19.9 17.0 14.0 69 3.5 SSE 22 37 12 20 - - 0.0
19/07:00am 19.9 16.5 13.6 67 3.7 SSE 24 39 13 21 - - 0.0
19/06:30am 19.9 16.9 13.8 68 3.6 SSE 22 33 12 18 - - 0.0
19/06:00am 19.9 16.6 14.0 69 3.5 SSE 24 35 13 19 - - 0.0
19/05:30am 20.1 17.0 14.5 70 3.3 SSE 24 35 13 19 - - 0.0
19/05:00am 20.3 17.5 14.4 69 3.5 S 22 37 12 20 - - 0.0
19/04:30am 20.4 17.0 14.7 70 3.4 SSE 26 37 14 20 - - 0.0
19/04:00am 20.6 17.4 15.4 72 3.1 S 26 35 14 19 - - 0.0
19/03:30am 21.1 18.3 16.3 74 2.9 S 26 33 14 18 - - 0.0
19/03:00am 21.4 18.9 17.0 76 2.7 S 26 39 14 21 - - 0.0
19/02:30am 21.5 19.8 17.1 76 2.7 S 22 35 12 19 - - 0.0
19/02:00am 21.6 20.5 17.2 76 2.7 SSE 19 26 10 14 - - 0.0
19/01:30am 21.6 21.0 17.6 78 2.5 SSE 17 24 9 13 - - 0.0
19/01:00am 21.7 19.7 17.5 77 2.6 S 24 37 13 20 - - 0.0
19/12:30am 22.0 20.8 17.6 76 2.8 SSE 20 32 11 17 - - 0.0
19/12:00am 21.8 20.2 17.4 76 2.8 SSE 22 32 12 17 - - 0.0
 
Date/Time
EST
Temp
°C
App
Temp
°C
Dew
Point
Rel
Hum
%
Delta-T
°C
Wind Press
QNH
hPa
Press
MSL
hPa
Rain
since 9 am
mm
Dir
 
Spd
km/h
Gust
km/h
Spd
kts
Gust
kts
18/11:30pm 22.1 19.6 17.2 74 3.1 S 26 41 14 22 - - 0.0
18/11:00pm 22.4 20.8 16.4 69 3.7 SSE 20 30 11 16 - - 0.0
18/10:30pm 22.4 20.1 16.7 70 3.5 S 24 39 13 21 - - 0.0
18/10:00pm 22.7 20.0 16.7 69 3.7 S 26 35 14 19 - - 0.0
18/09:30pm 23.0 20.5 17.0 69 3.7 S 26 35 14 19 - - 0.0
18/09:00pm 23.5 21.1 16.5 65 4.3 S 24 35 13 19 - - 0.0
18/08:30pm 24.0 20.7 16.0 61 4.9 S 28 37 15 20 - - 0.0
18/08:00pm 25.2 21.1 14.9 52 6.3 SSE 30 43 16 23 - - 0.0
18/07:30pm 25.5 21.2 15.5 54 6.2 S 32 44 17 24 - - 0.0
18/07:00pm 26.4 22.1 15.4 50 6.8 S 32 46 17 25 - - 0.0
18/06:30pm 28.6 25.2 13.7 40 9.0 SSE 24 33 13 18 - - 0.0
18/06:00pm 29.7 26.4 13.9 38 9.6 S 24 32 13 17 - - 0.0
18/05:30pm 30.6 28.4 13.4 35 10.5 S 17 22 9 12 - - 0.0
18/05:00pm 30.9 28.3 13.2 34 10.7 SE 19 26 10 14 - - 0.0
18/04:30pm 31.8 30.4 13.5 32 11.2 SSE 13 20 7 11 - - 0.0
18/04:00pm 31.4 29.6 13.2 33 11.1 S 15 22 8 12 - - 0.0
18/03:30pm 31.2 29.1 13.5 34 10.8 SSE 17 28 9 15 - - 0.0
18/03:00pm 31.4 29.3 13.6 33 10.9 SSE 17 30 9 16 - - 0.0
18/02:30pm 30.1 27.9 13.4 36 10.1 S 17 24 9 13 - - 0.0
18/02:00pm 30.5 27.9 13.3 35 10.4 SSE 19 28 10 15 - - 0.0
18/01:30pm 29.9 27.8 13.6 36 9.9 SSE 17 26 9 14 - - 0.0

Other Formats:

Comma delimited format used in spreadsheet applications
http://www.bom.gov.au/fwo/IDQ60801/IDQ60801.94347.axf

JavaScript Object Notation format (JSON) in row-major order
http://www.bom.gov.au/fwo/IDQ60801/IDQ60801.94347.json